Time;durP1;ratioP1;P1;durP2;ratioP2;P2;SDS_P1;SDS_P2;PMS_P1;PMS_P2;Temp;Humidity;BMP_temperature;BMP_pressure;BME280_temperature;BME280_humidity;BME280_pressure;Samples;Min_cycle;Max_cycle;Signal;HPM_P1;HPM_P2
2023/09/12 00:00:23;;;;;;;25.30;11.80;;;;;;;24.34;48.91;98670.23;67761;1278;1016691;-64
2023/09/12 00:03:45;;;;;;;25.40;11.80;;;;;;;24.14;49.26;98666.81;67794;1278;1016519;-64
2023/09/12 00:06:48;;;;;;;;;;;;;;;24.07;49.30;98662.06;67755;1278;1016237;-64
2023/09/12 00:09:50;;;;;;;27.70;13.10;;;;;;;24.11;49.34;98658.74;67763;1278;1017203;-64
2023/09/12 00:12:52;;;;;;;;;;;;;;;24.13;49.42;98659.89;67800;1278;1017245;-64
2023/09/12 00:15:55;;;;;;;24.30;11.30;;;;;;;24.10;49.38;98658.29;67808;1278;1016477;-63
2023/09/12 00:18:57;;;;;;;27.20;11.90;;;;;;;24.18;49.12;98654.48;67780;1278;1016422;-63
2023/09/12 00:22:00;;;;;;;;;;;;;;;24.19;49.14;98654.00;67766;1278;1016307;-63
2023/09/12 00:25:03;;;;;;;25.20;12.00;;;;;;;24.17;49.42;98655.70;67765;1278;1016435;-64
2023/09/12 00:28:05;;;;;;;25.20;12.00;;;;;;;24.18;49.31;98655.55;67814;1278;1016684;-63
2023/09/12 00:31:08;;;;;;;25.40;12.10;;;;;;;24.22;49.24;98650.93;67760;1278;1016450;-64
2023/09/12 00:34:10;;;;;;;;;;;;;;;24.11;49.31;98656.42;67775;1278;1018462;-64
2023/09/12 00:37:13;;;;;;;25.10;11.80;;;;;;;24.01;49.19;98656.22;67816;1278;1016500;-63
2023/09/12 00:40:15;;;;;;;;;;;;;;;24.00;49.23;98650.96;67840;1278;1016493;-63
2023/09/12 00:43:17;;;;;;;26.60;12.60;;;;;;;23.97;49.39;98650.69;67803;1278;1016261;-63
2023/09/12 00:46:20;;;;;;;;;;;;;;;23.91;49.53;98654.49;67793;1278;1018342;-64
2023/09/12 00:49:22;;;;;;;24.80;11.30;;;;;;;23.71;49.40;98655.25;67788;1278;1017316;-63
2023/09/12 00:52:25;;;;;;;27.40;12.80;;;;;;;23.59;49.57;98648.40;67833;1278;1016519;-64
2023/09/12 00:55:27;;;;;;;;;;;;;;;23.66;49.79;98649.94;67858;1278;1016280;-64
2023/09/12 00:58:30;;;;;;;24.30;11.80;;;;;;;23.72;49.64;98650.15;67805;1278;1016557;-64
2023/09/12 01:01:32;;;;;;;;;;;;;;;23.66;49.67;98647.30;67794;1278;1017254;-64
2023/09/12 01:04:35;;;;;;;29.40;13.80;;;;;;;23.56;49.70;98645.58;67782;1278;1016330;-64
2023/09/12 01:07:37;;;;;;;28.10;13.60;;;;;;;23.60;49.97;98643.34;67794;1278;1016137;-64
2023/09/12 01:10:39;;;;;;;;;;;;;;;23.56;49.89;98641.64;67842;1278;1016410;-63
2023/09/12 01:13:42;;;;;;;27.50;13.90;;;;;;;23.60;49.68;98643.90;67806;1278;1016523;-64
2023/09/12 01:16:44;;;;;;;;;;;;;;;23.55;49.72;98640.31;67751;1278;1016457;-64
2023/09/12 01:19:48;;;;;;;19.30;7.10;;;;;;;23.43;50.06;98642.61;67794;1278;1019291;-63
2023/09/12 01:22:50;;;;;;;27.00;11.80;;;;;;;23.40;50.23;98641.01;67770;1278;1016354;-64
2023/09/12 01:25:53;;;;;;;;;;;;;;;23.47;49.89;98641.50;67788;1278;1018912;-64
2023/09/12 01:28:55;;;;;;;28.60;13.00;;;;;;;23.52;49.65;98643.91;67821;1278;1016604;-64
2023/09/12 01:31:57;;;;;;;27.00;12.00;;;;;;;23.55;49.85;98643.52;67837;1278;1016269;-63
2023/09/12 01:35:00;;;;;;;;;;;;;;;23.41;49.75;98640.08;67813;1278;1016590;-63
2023/09/12 01:38:03;;;;;;;;;;;;;;;23.47;49.79;98638.77;67754;1278;1016489;-64
2023/09/12 01:41:05;;;;;;;26.90;13.00;;;;;;;23.46;49.64;98640.16;67780;1278;1015749;-64
2023/09/12 01:44:07;;;;;;;30.60;13.60;;;;;;;23.39;49.72;98641.18;67819;1278;1016106;-64
2023/09/12 01:47:10;;;;;;;;;;;;;;;23.41;49.61;98643.95;67821;1278;1018828;-64
2023/09/12 01:50:13;;;;;;;32.20;14.30;;;;;;;23.31;50.04;98647.61;67765;1278;1017144;-64
2023/09/12 01:53:15;;;;;;;25.90;13.20;;;;;;;23.27;50.09;98646.27;67786;1278;1016237;-65
2023/09/12 01:56:17;;;;;;;;;;;;;;;23.35;49.78;98642.56;67838;1278;1016443;-64
2023/09/12 01:59:20;;;;;;;28.20;14.00;;;;;;;23.20;49.92;98644.55;67842;1278;1016502;-64
2023/09/12 02:02:22;;;;;;;29.10;13.60;;;;;;;23.14;50.19;98647.20;67805;1278;1016304;-64
2023/09/12 02:05:24;;;;;;;28.00;13.40;;;;;;;23.14;50.21;98645.45;67779;1278;1017159;-65
2023/09/12 02:08:27;;;;;;;28.70;13.80;;;;;;;23.12;50.11;98646.37;67786;1278;1016528;-65
2023/09/12 02:11:29;;;;;;;29.10;13.70;;;;;;;22.98;50.34;98649.05;67821;1278;1016462;-64
2023/09/12 02:14:32;;;;;;;;;;;;;;;23.00;50.01;98644.23;67837;1278;1016438;-65
2023/09/12 02:17:34;;;;;;;26.90;13.70;;;;;;;22.97;50.09;98645.66;67786;1278;1016020;-65
2023/09/12 02:20:36;;;;;;;;;;;;;;;22.99;50.24;98649.00;67801;1278;1016931;-65
2023/09/12 02:23:39;;;;;;;26.20;12.40;;;;;;;22.90;50.38;98652.45;67779;1278;1016393;-65
2023/09/12 02:26:41;;;;;;;24.10;11.60;;;;;;;22.82;50.25;98655.34;67770;1278;1016209;-64
2023/09/12 02:29:44;;;;;;;;;;;;;;;22.72;50.27;98657.38;67818;1278;1016169;-64
2023/09/12 02:32:46;;;;;;;29.50;12.80;;;;;;;22.58;50.25;98654.21;67818;1278;1016484;-64
2023/09/12 02:35:48;;;;;;;25.50;11.70;;;;;;;22.57;50.42;98652.48;67766;1278;1016352;-65
2023/09/12 02:38:51;;;;;;;23.00;10.30;;;;;;;22.43;50.53;98655.50;67753;1278;1016889;-65
2023/09/12 02:41:53;;;;;;;25.90;12.20;;;;;;;22.38;50.54;98655.91;67754;1278;1019582;-64
2023/09/12 02:44:56;;;;;;;;;;;;;;;22.34;50.48;98653.14;67790;1278;1016267;-65
2023/09/12 02:47:58;;;;;;;27.20;14.20;;;;;;;22.19;50.78;98653.95;67857;1278;1016192;-64
2023/09/12 02:51:00;;;;;;;;;;;;;;;22.14;50.88;98648.35;67816;1278;1016350;-65
2023/09/12 02:54:03;;;;;;;32.00;15.80;;;;;;;22.16;50.93;98646.18;67800;1278;1016171;-65
2023/09/12 02:57:05;;;;;;;29.30;14.70;;;;;;;22.27;50.89;98651.08;67768;1278;1018058;-64
2023/09/12 03:00:09;;;;;;;;;;;;;;;22.28;50.81;98651.35;67772;1278;1016434;-64
2023/09/12 03:03:11;;;;;;;29.20;14.00;;;;;;;22.30;50.55;98647.20;67773;1278;1016240;-64
2023/09/12 03:06:14;;;;;;;;;;;;;;;22.11;50.85;98647.16;67851;1278;1016438;-64
2023/09/12 03:09:19;;;;;;;;;;;;;;;22.13;50.95;98646.05;67826;1278;1016329;-64
2023/09/12 03:12:21;;;;;;;30.20;14.80;;;;;;;22.14;50.81;98645.56;67776;1278;1016483;-64
2023/09/12 03:15:24;;;;;;;;;;;;;;;22.08;50.81;98646.61;67855;1278;1016208;-64
2023/09/12 03:18:26;;;;;;;28.50;14.10;;;;;;;22.02;50.91;98652.30;67798;1278;1016986;-65
2023/09/12 03:21:29;;;;;;;31.00;14.30;;;;;;;22.03;50.81;98654.23;67789;1278;1016242;-64
2023/09/12 03:24:31;;;;;;;27.60;13.30;;;;;;;22.05;50.84;98653.20;67792;1278;1016441;-64
2023/09/12 03:27:34;;;;;;;27.60;13.90;;;;;;;22.06;50.83;98652.89;67810;1278;1016434;-64
2023/09/12 03:30:36;;;;;;;31.30;14.20;;;;;;;22.12;50.63;98651.34;67815;1278;1016500;-65
2023/09/12 03:33:38;;;;;;;28.80;14.20;;;;;;;22.08;50.38;98649.64;67840;1278;1016918;-65
2023/09/12 03:36:41;;;;;;;29.40;14.50;;;;;;;21.98;50.62;98655.58;67826;1278;1016138;-64
2023/09/12 03:39:43;;;;;;;30.40;13.70;;;;;;;21.88;50.77;98656.52;67773;1278;1016329;-64
2023/09/12 03:42:45;;;;;;;31.60;14.60;;;;;;;21.78;50.85;98656.25;67801;1278;1016396;-65
2023/09/12 03:45:48;;;;;;;;;;;;;;;21.78;50.68;98659.30;67718;1278;1016392;-64
2023/09/12 03:48:51;;;;;;;32.30;15.70;;;;;;;21.79;50.84;98662.06;67832;1278;1016504;-64
2023/09/12 03:51:53;;;;;;;;;;;;;;;21.90;50.78;98659.40;67772;1278;1016337;-64
2023/09/12 03:54:56;;;;;;;29.40;14.80;;;;;;;21.87;50.79;98665.65;67783;1278;1016452;-64
2023/09/12 03:57:58;;;;;;;30.30;14.40;;;;;;;21.79;50.96;98664.90;67838;1278;1016823;-64
2023/09/12 04:01:01;;;;;;;30.60;14.90;;;;;;;21.87;50.61;98663.36;67821;1278;1016264;-63
2023/09/12 04:04:03;;;;;;;30.30;14.60;;;;;;;21.76;50.68;98666.31;67785;1278;1016245;-64
2023/09/12 04:07:05;;;;;;;31.10;15.60;;;;;;;21.68;50.69;98665.91;67762;1278;1017248;-64
2023/09/12 04:10:08;;;;;;;;;;;;;;;21.72;50.71;98666.05;67794;1278;1016438;-64
2023/09/12 04:13:10;;;;;;;28.80;14.30;;;;;;;21.71;50.66;98665.62;67821;1278;1016533;-64
2023/09/12 04:16:13;;;;;;;31.10;14.40;;;;;;;21.75;50.60;98665.48;67825;1278;1016415;-64
2023/09/12 04:19:15;;;;;;;;;;;;;;;21.79;50.42;98662.44;67774;1278;1016547;-63
2023/09/12 04:22:18;;;;;;;27.60;14.60;;;;;;;21.79;50.22;98659.87;67748;1278;1019311;-64
2023/09/12 04:25:21;;;;;;;30.30;15.90;;;;;;;21.73;50.41;98661.85;67752;1278;1016839;-62
2023/09/12 04:28:26;;;;;;;30.40;15.70;;;;;;;21.75;50.40;98663.20;67827;1278;1016450;-65
2023/09/12 04:31:28;;;;;;;30.00;14.90;;;;;;;21.82;50.41;98661.95;67786;1278;1016469;-64
2023/09/12 04:34:31;;;;;;;30.60;14.90;;;;;;;21.80;50.31;98659.09;67803;1278;1016162;-65
2023/09/12 04:37:33;;;;;;;30.00;14.90;;;;;;;21.82;50.39;98656.05;67772;1278;1016474;-64
2023/09/12 04:40:36;;;;;;;;;;;;;;;21.93;50.12;98657.10;67797;1278;1016252;-65
2023/09/12 04:43:38;;;;;;;36.00;14.90;;;;;;;22.03;50.19;98662.29;67771;1278;1016631;-65
2023/09/12 04:46:40;;;;;;;32.10;14.20;;;;;;;22.18;50.00;98664.13;67768;1278;1016421;-64
2023/09/12 04:49:43;;;;;;;31.40;14.40;;;;;;;22.23;49.96;98664.17;67830;1278;1016380;-64
2023/09/12 04:52:45;;;;;;;29.30;13.50;;;;;;;22.22;50.02;98663.35;67791;1278;1016345;-65
2023/09/12 04:55:48;;;;;;;33.20;15.00;;;;;;;22.32;50.16;98667.23;67810;1278;1015944;-64
2023/09/12 04:58:50;;;;;;;29.70;14.00;;;;;;;22.48;50.14;98661.73;67781;1278;1016780;-64
2023/09/12 05:01:52;;;;;;;31.70;14.50;;;;;;;22.65;49.92;98661.09;67770;1278;1016933;-63
2023/09/12 05:04:55;;;;;;;30.90;14.50;;;;;;;22.72;49.87;98665.64;67785;1278;1016470;-62
2023/09/12 05:07:58;;;;;;;31.30;14.70;;;;;;;22.94;49.60;98664.70;67827;1278;1016237;-64
2023/09/12 05:11:02;;;;;;;29.00;14.00;;;;;;;23.10;49.43;98666.58;67750;1278;1019536;-65
2023/09/12 05:14:04;;;;;;;28.10;14.00;;;;;;;23.20;49.30;98669.60;67780;1278;1016397;-64
2023/09/12 05:17:07;;;;;;;;;;;;;;;23.37;49.28;98670.27;67754;1278;1016253;-65
2023/09/12 05:20:10;;;;;;;30.60;15.20;;;;;;;23.58;49.23;98668.69;67823;1278;1016420;-65
2023/09/12 05:23:12;;;;;;;;;;;;;;;23.77;49.29;98671.29;67822;1278;1016394;-62
2023/09/12 05:26:14;;;;;;;29.70;14.50;;;;;;;23.88;49.52;98670.76;67745;1278;1016148;-65
2023/09/12 05:29:17;;;;;;;;;;;;;;;24.14;49.33;98672.67;67809;1278;1016606;-65
2023/09/12 05:32:19;;;;;;;;;;;;;;;24.36;49.30;98671.73;67833;1278;1016208;-64
2023/09/12 05:35:22;;;;;;;30.20;14.80;;;;;;;24.53;49.37;98673.91;67833;1278;1016100;-65
2023/09/12 05:38:24;;;;;;;;;;;;;;;24.77;49.31;98670.48;67802;1278;1016376;-63
2023/09/12 05:41:27;;;;;;;32.10;15.10;;;;;;;25.06;49.31;98676.16;67783;1278;1017200;-64
2023/09/12 05:44:29;;;;;;;;;;;;;;;25.39;49.21;98676.88;67781;1278;1016380;-65
2023/09/12 05:47:31;;;;;;;33.60;15.40;;;;;;;25.66;49.09;98677.68;67799;1278;1017495;-64
2023/09/12 05:50:34;;;;;;;33.00;16.80;;;;;;;25.81;49.05;98680.23;67833;1278;1016315;-65
2023/09/12 05:53:36;;;;;;;;;;;;;;;25.95;48.99;98679.17;67797;1278;1016424;-65
2023/09/12 05:56:39;;;;;;;33.50;17.90;;;;;;;26.18;48.97;98680.75;67804;1278;1016413;-65
2023/09/12 05:59:41;;;;;;;;;;;;;;;26.34;49.02;98681.52;67767;1278;1016528;-64
2023/09/12 06:02:44;;;;;;;33.80;18.70;;;;;;;26.56;48.92;98682.67;67798;1278;1016402;-65
2023/09/12 06:05:46;;;;;;;36.80;18.40;;;;;;;26.81;49.08;98685.07;67796;1278;1016347;-65
2023/09/12 06:08:48;;;;;;;34.10;18.60;;;;;;;27.17;48.64;98682.38;67567;1278;1281624;-65
2023/09/12 06:11:51;;;;;;;32.70;18.30;;;;;;;27.34;48.63;98683.33;67777;1278;1016370;-63
2023/09/12 06:14:55;;;;;;;33.10;18.10;;;;;;;27.53;48.50;98683.94;67757;1278;1016472;-65
2023/09/12 06:17:58;;;;;;;34.10;19.20;;;;;;;27.67;48.37;98682.73;67821;1278;1015780;-65
2023/09/12 06:21:03;;;;;;;33.50;18.20;;;;;;;27.93;48.39;98681.96;67800;1278;1016188;-63
2023/09/12 06:24:06;;;;;;;30.30;17.10;;;;;;;28.26;48.06;98684.83;67819;1278;1016787;-65
2023/09/12 06:27:08;;;;;;;33.80;18.50;;;;;;;28.54;47.82;98685.98;67805;1278;1018833;-65
2023/09/12 06:30:11;;;;;;;32.70;18.20;;;;;;;28.77;47.70;98690.26;67778;1278;1016267;-65
2023/09/12 06:33:13;;;;;;;36.60;18.80;;;;;;;29.11;47.33;98690.98;67771;1278;1016420;-64
2023/09/12 06:36:15;;;;;;;29.60;16.80;;;;;;;29.38;47.11;98691.21;67791;1278;1016287;-65
2023/09/12 06:39:18;;;;;;;32.10;17.90;;;;;;;29.59;46.94;98693.67;67816;1278;1016367;-66
2023/09/12 06:42:20;;;;;;;30.80;17.90;;;;;;;29.91;46.69;98688.80;67819;1278;1016477;-65
2023/09/12 06:45:23;;;;;;;32.80;18.00;;;;;;;30.13;46.34;98688.25;67831;1278;1016481;-65
2023/09/12 06:48:25;;;;;;;31.60;17.50;;;;;;;30.42;46.38;98692.69;67783;1278;1016308;-65
2023/09/12 06:51:27;;;;;;;32.00;17.50;;;;;;;30.73;45.70;98692.61;67784;1278;1016429;-65
2023/09/12 06:54:30;;;;;;;31.70;17.60;;;;;;;31.00;45.02;98693.82;67832;1278;1016723;-65
2023/09/12 06:57:32;;;;;;;30.10;16.50;;;;;;;31.02;44.57;98698.55;67801;1278;1016213;-65
2023/09/12 07:00:35;;;;;;;31.70;16.80;;;;;;;31.19;44.47;98693.52;67783;1278;1016380;-65
2023/09/12 07:03:37;;;;;;;30.30;15.90;;;;;;;31.40;44.10;98694.75;67755;1278;1016445;-65
2023/09/12 07:06:42;;;;;;;32.60;16.20;;;;;;;31.66;43.54;98698.90;67778;1278;1016510;-65
2023/09/12 07:09:46;;;;;;;35.10;19.80;;;;;;;31.94;42.62;98699.55;67831;1278;1016238;-65
2023/09/12 07:12:49;;;;;;;38.30;21.70;;;;;;;32.03;41.74;98703.98;67833;1278;1017027;-65
2023/09/12 07:15:51;;;;;;;34.80;20.30;;;;;;;32.18;41.95;98707.27;67777;1278;1017808;-65
2023/09/12 07:18:54;;;;;;;39.90;22.40;;;;;;;32.37;42.13;98704.54;67760;1278;1016358;-64
2023/09/12 07:21:56;;;;;;;34.10;19.80;;;;;;;32.56;41.36;98704.93;67830;1278;1016430;-65
2023/09/12 07:24:59;;;;;;;33.10;19.20;;;;;;;32.60;41.02;98708.38;67770;1278;1016287;-65
2023/09/12 07:28:01;;;;;;;32.00;19.50;;;;;;;32.76;40.82;98711.45;67796;1278;1016322;-65
2023/09/12 07:31:04;;;;;;;31.80;16.90;;;;;;;32.89;40.70;98708.17;67791;1278;1016422;-65
2023/09/12 07:34:08;;;;;;;34.70;16.80;;;;;;;33.01;40.17;98707.58;67815;1278;1016412;-64
2023/09/12 07:37:10;;;;;;;28.10;15.30;;;;;;;32.92;39.68;98712.90;67829;1278;1016372;-65
2023/09/12 07:40:13;;;;;;;34.40;15.50;;;;;;;32.80;39.33;98716.13;67813;1278;1016098;-65
2023/09/12 07:43:15;;;;;;;37.00;20.10;;;;;;;32.94;39.06;98715.63;67741;1278;1016399;-64
2023/09/12 07:46:17;;;;;;;45.60;25.50;;;;;;;33.01;39.16;98715.89;67781;1278;1016816;-65
2023/09/12 07:49:20;;;;;;;45.50;24.90;;;;;;;33.24;38.85;98715.83;67790;1278;1016462;-65
2023/09/12 07:52:22;;;;;;;45.20;25.50;;;;;;;33.34;38.52;98711.52;67822;1278;1016390;-64
2023/09/12 07:55:25;;;;;;;44.20;21.90;;;;;;;33.61;38.75;98710.00;67811;1278;1016549;-64
2023/09/12 07:58:27;;;;;;;39.70;19.60;;;;;;;33.91;38.05;98714.30;67748;1278;1018821;-65
2023/09/12 08:01:30;;;;;;;33.10;16.70;;;;;;;34.06;37.70;98713.77;67778;1278;1018742;-65
2023/09/12 08:04:33;;;;;;;29.40;14.70;;;;;;;34.03;36.97;98705.56;67809;1278;1016521;-66
2023/09/12 08:07:36;;;;;;;30.60;12.70;;;;;;;33.77;36.21;98707.08;67819;1278;1016519;-64
2023/09/12 08:10:38;;;;;;;24.40;11.40;;;;;;;33.59;37.03;98711.60;67833;1278;1016116;-65
2023/09/12 08:13:41;;;;;;;33.50;12.60;;;;;;;33.96;36.30;98712.31;67796;1278;1016522;-65
2023/09/12 08:16:43;;;;;;;34.20;12.90;;;;;;;33.96;35.89;98707.58;67767;1278;1016533;-65
2023/09/12 08:19:46;;;;;;;27.80;12.90;;;;;;;33.90;36.29;98712.55;67799;1278;1016380;-65
2023/09/12 08:22:48;;;;;;;28.10;12.70;;;;;;;34.13;36.52;98714.58;67823;1278;1017000;-65
2023/09/12 08:25:51;;;;;;;26.90;12.70;;;;;;;34.24;36.33;98712.98;67833;1278;1016280;-65
2023/09/12 08:28:53;;;;;;;26.90;12.50;;;;;;;34.34;36.07;98711.52;67804;1278;1016469;-65
2023/09/12 08:31:56;;;;;;;24.20;11.40;;;;;;;34.39;35.86;98713.31;67788;1278;1016364;-65
2023/09/12 08:34:59;;;;;;;26.80;12.50;;;;;;;34.45;35.55;98711.27;67772;1278;1016662;-65
2023/09/12 08:38:01;;;;;;;29.80;12.10;;;;;;;34.65;35.71;98710.69;67818;1278;1016491;-65
2023/09/12 08:41:04;;;;;;;26.10;12.30;;;;;;;35.00;35.37;98711.44;67803;1278;1016072;-65
2023/09/12 08:44:06;;;;;;;23.40;10.70;;;;;;;35.37;34.96;98713.23;67727;1278;1016541;-65
2023/09/12 08:47:09;;;;;;;24.80;11.80;;;;;;;35.18;34.42;98711.80;67807;1278;1016793;-60
2023/09/12 08:50:12;;;;;;;23.40;11.90;;;;;;;35.37;34.91;98714.38;67824;1255;1016096;-64
2023/09/12 08:53:15;;;;;;;26.00;12.00;;;;;;;35.70;34.84;98714.88;67812;1278;1016452;-64
2023/09/12 08:56:18;;;;;;;26.80;12.10;;;;;;;35.93;34.40;98715.23;67837;1278;1016421;-65
2023/09/12 08:59:20;;;;;;;25.50;11.60;;;;;;;36.06;34.54;98715.53;67787;1256;1016478;-65
2023/09/12 09:02:23;;;;;;;24.20;11.00;;;;;;;36.07;33.70;98715.86;67783;1278;1016502;-63
2023/09/12 09:05:25;;;;;;;24.30;10.90;;;;;;;35.89;32.97;98718.41;67829;1278;1016542;-64
2023/09/12 09:08:27;;;;;;;24.90;11.40;;;;;;;36.08;33.79;98717.08;67797;1278;1016442;-64
2023/09/12 09:11:30;;;;;;;22.90;10.30;;;;;;;36.20;32.61;98718.52;67841;1278;1016379;-65
2023/09/12 09:14:32;;;;;;;24.20;10.30;;;;;;;35.95;32.62;98719.73;67775;1278;1016238;-64
2023/09/12 09:17:35;;;;;;;22.20;10.50;;;;;;;35.86;32.34;98714.53;67800;1278;1016469;-64
2023/09/12 09:20:38;;;;;;;26.40;10.80;;;;;;;36.08;33.00;98716.75;67797;1278;1016516;-64
2023/09/12 09:23:40;;;;;;;22.10;9.90;;;;;;;36.00;32.54;98717.95;67786;1278;1016508;-65
2023/09/12 09:26:43;;;;;;;22.00;9.80;;;;;;;36.20;31.94;98713.22;67777;1278;1016495;-63
2023/09/12 09:29:45;;;;;;;24.80;10.60;;;;;;;36.33;31.62;98708.66;67807;1278;1016492;-63
2023/09/12 09:32:48;;;;;;;23.70;9.40;;;;;;;36.58;32.62;98702.16;67834;1278;1016371;-64
2023/09/12 09:35:51;;;;;;;24.00;10.20;;;;;;;37.02;31.64;98695.55;67772;1278;1016574;-65
2023/09/12 09:38:53;;;;;;;23.40;10.50;;;;;;;37.04;31.56;98695.77;67787;1278;1016554;-64
2023/09/12 09:41:56;;;;;;;23.50;10.50;;;;;;;37.44;31.61;98696.32;67745;1278;1016488;-65
2023/09/12 09:44:59;;;;;;;22.80;9.90;;;;;;;37.31;30.82;98698.65;67740;1278;1016488;-65
2023/09/12 09:48:01;;;;;;;24.60;10.60;;;;;;;37.66;31.43;98692.88;67781;1278;1016523;-65
2023/09/12 09:51:04;;;;;;;23.20;10.10;;;;;;;37.97;30.77;98694.60;67818;1278;1016397;-64
2023/09/12 09:54:06;;;;;;;23.10;10.20;;;;;;;38.19;31.17;98691.75;67787;1278;1016289;-64
2023/09/12 09:57:08;;;;;;;22.80;10.40;;;;;;;38.57;30.62;98690.20;67745;1278;1019374;-64
2023/09/12 10:00:14;;;;;;;21.90;10.20;;;;;;;38.53;29.93;98689.52;67727;1278;1016304;-64
2023/09/12 10:03:17;;;;;;;24.40;9.90;;;;;;;38.56;30.35;98689.55;67747;1278;1016081;-64
2023/09/12 10:06:19;;;;;;;21.20;9.20;;;;;;;38.59;29.95;98689.20;67822;1278;1016535;-64
2023/09/12 10:09:22;;;;;;;21.70;9.60;;;;;;;38.74;30.11;98686.75;67833;1278;1016001;-64
2023/09/12 10:12:24;;;;;;;20.90;9.20;;;;;;;39.04;29.89;98688.05;67811;1278;1016231;-64
2023/09/12 10:15:27;;;;;;;21.00;8.50;;;;;;;39.26;29.24;98690.09;67735;1278;1016321;-65
2023/09/12 10:18:29;;;;;;;20.80;8.60;;;;;;;39.02;28.62;98690.30;67770;1278;1018479;-64
2023/09/12 10:21:32;;;;;;;21.50;8.50;;;;;;;38.82;28.06;98686.48;67825;1263;1016358;-64
2023/09/12 10:24:35;;;;;;;19.80;8.30;;;;;;;38.96;27.89;98684.64;67828;1278;1016443;-64
2023/09/12 10:27:37;;;;;;;20.30;8.60;;;;;;;38.93;26.88;98684.92;67770;1278;1016486;-65
2023/09/12 10:30:40;;;;;;;19.60;8.20;;;;;;;38.77;27.12;98683.55;67754;1278;1016638;-65
2023/09/12 10:33:42;;;;;;;18.40;8.10;;;;;;;38.95;27.52;98682.13;67839;1278;1016209;-64
2023/09/12 10:36:45;;;;;;;19.20;8.10;;;;;;;39.08;27.14;98686.52;67835;1278;1016412;-64
2023/09/12 10:39:47;;;;;;;22.00;8.80;;;;;;;39.19;27.73;98685.77;67761;1278;1016322;-64
2023/09/12 10:42:49;;;;;;;19.50;8.70;;;;;;;39.49;27.23;98685.30;67789;1278;1016362;-64
2023/09/12 10:45:52;;;;;;;18.50;7.70;;;;;;;39.32;26.06;98689.00;67821;1278;1016229;-64
2023/09/12 10:48:55;;;;;;;19.30;8.10;;;;;;;38.74;26.32;98687.08;67828;1278;1016364;-61
2023/09/12 10:51:57;;;;;;;19.80;7.80;;;;;;;38.53;26.41;98689.08;67773;1278;1016445;-64
2023/09/12 10:55:00;;;;;;;19.50;8.60;;;;;;;38.21;26.06;98687.05;67815;1278;1016799;-65
2023/09/12 10:58:03;;;;;;;21.10;8.00;;;;;;;38.01;27.06;98681.88;67833;1278;1016238;-64
2023/09/12 11:01:12;;;;;;;19.30;8.10;;;;;;;38.34;27.42;98675.51;67827;1278;1016387;-64
2023/09/12 11:04:15;;;;;;;20.60;8.50;;;;;;;38.78;27.02;98674.33;67770;1278;1016445;-64
2023/09/12 11:07:17;;;;;;;20.90;8.00;;;;;;;39.09;26.71;98673.20;67780;1278;1016268;-63
2023/09/12 11:10:20;;;;;;;20.50;8.30;;;;;;;39.40;26.80;98677.10;67825;1278;1016600;-63
2023/09/12 11:13:23;;;;;;;21.30;8.20;;;;;;;39.88;26.91;98677.28;67806;1278;1016542;-65
2023/09/12 11:16:26;;;;;;;19.60;7.90;;;;;;;39.68;25.73;98682.20;67774;1278;1016460;-65
2023/09/12 11:19:28;;;;;;;19.00;8.00;;;;;;;39.32;26.10;98677.39;67828;1278;1016281;-64
2023/09/12 11:22:31;;;;;;;18.70;7.90;;;;;;;39.20;25.79;98676.34;67832;1278;1016410;-64
2023/09/12 11:25:34;;;;;;;20.20;8.00;;;;;;;38.75;25.79;98678.95;67742;1278;1016110;-65
2023/09/12 11:28:37;;;;;;;19.90;8.40;;;;;;;38.33;26.48;98680.11;67800;1278;1016034;-65
2023/09/12 11:31:42;;;;;;;21.20;7.70;;;;;;;38.28;26.86;98680.89;67793;1278;1016442;-65
2023/09/12 11:34:44;;;;;;;19.40;8.40;;;;;;;38.27;26.58;98677.06;67829;1278;1016493;-64
2023/09/12 11:37:47;;;;;;;21.80;8.80;;;;;;;38.30;26.03;98677.27;67811;1278;1016124;-64
2023/09/12 11:40:49;;;;;;;19.50;8.20;;;;;;;38.64;26.09;98675.33;67779;1278;1016475;-63
2023/09/12 11:43:52;;;;;;;20.40;8.10;;;;;;;38.89;26.42;98676.19;67747;1278;1016304;-65
2023/09/12 11:46:54;;;;;;;20.90;8.40;;;;;;;39.02;27.16;98672.59;67792;1278;1016500;-65
2023/09/12 11:49:57;;;;;;;21.40;8.70;;;;;;;39.56;26.28;98674.23;67776;1278;1016342;-64
2023/09/12 11:52:59;;;;;;;21.90;9.50;;;;;;;39.92;26.69;98669.89;67819;1278;1016426;-65
2023/09/12 11:56:01;;;;;;;20.20;7.80;;;;;;;40.44;26.20;98667.05;67768;1278;1016399;-64
2023/09/12 11:59:04;;;;;;;23.90;8.10;;;;;;;40.59;25.72;98664.67;67793;1278;1016271;-63
2023/09/12 12:02:06;;;;;;;20.70;7.70;;;;;;;40.41;26.10;98665.10;67779;1278;1016601;-64
2023/09/12 12:05:09;;;;;;;20.30;7.90;;;;;;;40.08;25.41;98664.84;67852;1278;1016161;-65
2023/09/12 12:08:12;;;;;;;22.50;7.80;;;;;;;39.75;25.80;98660.19;67771;1278;1016509;-65
2023/09/12 12:11:14;;;;;;;21.00;8.60;;;;;;;39.52;25.57;98656.20;67701;1278;1018112;-65
2023/09/12 12:14:17;;;;;;;19.20;7.50;;;;;;;39.49;25.53;98651.80;67794;1278;1016491;-64
2023/09/12 12:17:19;;;;;;;20.00;8.10;;;;;;;39.92;25.34;98653.47;67796;1278;1017223;-64
2023/09/12 12:20:22;;;;;;;21.20;7.70;;;;;;;39.81;24.92;98655.23;67791;1278;1016387;-65
2023/09/12 12:23:24;;;;;;;19.10;8.00;;;;;;;39.68;24.83;98656.02;67752;1278;1016462;-63
2023/09/12 12:26:27;;;;;;;24.40;8.00;;;;;;;39.38;24.61;98653.26;67767;1278;1016199;-64
2023/09/12 12:29:29;;;;;;;27.00;8.80;;;;;;;38.97;24.83;98648.17;67805;1278;1016493;-65
2023/09/12 12:32:31;;;;;;;22.90;7.90;;;;;;;39.01;24.73;98647.21;67811;1278;1017221;-64
2023/09/12 12:35:36;;;;;;;20.90;8.40;;;;;;;39.33;24.86;98648.96;67780;1278;1017247;-65
2023/09/12 12:38:39;;;;;;;20.70;8.40;;;;;;;39.32;24.75;98650.39;67759;1278;1016463;-65
2023/09/12 12:41:41;;;;;;;18.80;7.80;;;;;;;39.36;24.89;98646.41;67799;1278;1015700;-65
2023/09/12 12:44:45;;;;;;;20.20;8.20;;;;;;;39.07;25.50;98644.33;67728;1278;1016303;-65
2023/09/12 12:47:47;;;;;;;20.00;8.20;;;;;;;39.13;26.01;98644.14;67777;1278;1016945;-65
2023/09/12 12:50:50;;;;;;;22.10;8.30;;;;;;;39.64;26.19;98640.30;67806;1278;1016286;-65
2023/09/12 12:53:52;;;;;;;19.20;8.40;;;;;;;40.05;25.26;98639.73;67743;1278;1016358;-65
2023/09/12 12:56:55;;;;;;;23.70;8.20;;;;;;;40.13;25.04;98639.86;67747;1278;1016902;-65
2023/09/12 12:59:57;;;;;;;19.20;7.80;;;;;;;39.71;24.06;98639.20;67686;1278;1016019;-65
2023/09/12 13:03:00;;;;;;;21.00;8.30;;;;;;;39.20;23.91;98635.19;67754;1278;1016871;-65
2023/09/12 13:06:02;;;;;;;20.60;8.00;;;;;;;39.06;24.41;98636.88;67754;1278;1016403;-65
2023/09/12 13:09:05;;;;;;;21.60;8.90;;;;;;;38.41;24.99;98635.00;67723;1278;1016431;-65
2023/09/12 13:12:08;;;;;;;22.00;8.60;;;;;;;38.65;25.34;98633.45;67802;1278;1016243;-65
2023/09/12 13:15:10;;;;;;;22.40;8.80;;;;;;;38.11;25.61;98637.47;67765;1278;1016298;-65
2023/09/12 13:18:13;;;;;;;20.10;8.40;;;;;;;38.14;25.74;98629.08;67755;1278;1016024;-64
2023/09/12 13:21:15;;;;;;;19.50;8.40;;;;;;;37.94;25.47;98630.13;67732;1278;1016246;-65
2023/09/12 13:24:18;;;;;;;25.10;8.50;;;;;;;37.96;25.71;98625.96;67763;1278;1016115;-64
2023/09/12 13:27:20;;;;;;;20.90;8.00;;;;;;;38.23;26.30;98622.68;67776;1278;1016052;-64
2023/09/12 13:30:23;;;;;;;20.00;7.80;;;;;;;38.69;25.68;98622.33;67730;1278;1016388;-64
2023/09/12 13:33:25;;;;;;;22.10;8.40;;;;;;;38.75;25.42;98622.29;67743;1278;1017197;-65
2023/09/12 13:36:28;;;;;;;20.20;7.90;;;;;;;38.88;25.83;98621.22;67787;1278;1016799;-65
2023/09/12 13:39:30;;;;;;;20.80;8.70;;;;;;;39.27;25.52;98620.77;67797;1278;1016399;-64
2023/09/12 13:42:33;;;;;;;19.60;8.10;;;;;;;39.18;24.71;98619.67;67799;1278;1017033;-64
2023/09/12 13:45:35;;;;;;;20.30;8.10;;;;;;;38.74;24.97;98620.20;67747;1278;1016166;-64
2023/09/12 13:48:37;;;;;;;24.00;8.60;;;;;;;38.10;26.04;98622.58;67718;1278;1016305;-65
2023/09/12 13:51:40;;;;;;;20.80;8.20;;;;;;;37.67;26.60;98623.89;67794;1278;1016307;-65
2023/09/12 13:54:42;;;;;;;19.90;8.10;;;;;;;37.20;26.58;98627.61;67807;1256;1016471;-64